Disclaimer

Please do not use the information listed here in-flight or in-navigation, as they are not provided to us by the airports but are provided by volunteers, so they might be outdated.

Search


Regions


Airport information page

No radio frequency information is available.

Airport informations:
Latitude: 17° 11' 42.51" N
Longitude: 104° 07' 07.05" E
Elevation: 529 feet - 161 meters
Operating hours: From sunrise to sunset (SR-SS)
Operating agency: Military-civil joint use airport
Timezone: UTC+7
Fuel: Jet fuel avaiable but type is unknown.

Runway information:
05/23 - 8530 x 148 feet< - >2600 x 45 meters

Recent METARs:
VTUI 210900Z VRB02KT 9999 SCT048 34/20 Q1009 NOSIG
VTUI 211000Z 02003KT 340V080 9999 SCT048 32/21 Q1010 NOSIG
VTUI 211000Z 02003KT 340V080 9999 SCT048 32/21 Q1010 NOSIG

Airport on the map: